sensor_id;sensor_type;location;lat;lon;timestamp;temperature;humidity
6841;DHT22;3458;53.678;14.080;2023-03-04T00:01:29;3.50;99.90
6841;DHT22;3458;53.678;14.080;2023-03-04T00:03:55;3.50;99.90
6841;DHT22;3458;53.678;14.080;2023-03-04T00:06:20;3.50;99.90
6841;DHT22;3458;53.678;14.080;2023-03-04T00:08:46;3.50;99.90
6841;DHT22;3458;53.678;14.080;2023-03-04T00:11:11;3.60;99.90
6841;DHT22;3458;53.678;14.080;2023-03-04T00:13:37;3.60;99.90
6841;DHT22;3458;53.678;14.080;2023-03-04T00:16:02;3.60;99.90
6841;DHT22;3458;53.678;14.080;2023-03-04T00:18:28;3.60;99.90
6841;DHT22;3458;53.678;14.080;2023-03-04T00:20:53;3.60;99.90
6841;DHT22;3458;53.678;14.080;2023-03-04T00:23:19;3.60;99.90
6841;DHT22;3458;53.678;14.080;2023-03-04T00:25:45;3.60;99.90
6841;DHT22;3458;53.678;14.080;2023-03-04T00:28:10;3.60;99.90
6841;DHT22;3458;53.678;14.080;2023-03-04T00:30:36;3.70;99.90
6841;DHT22;3458;53.678;14.080;2023-03-04T00:33:01;3.70;99.90
6841;DHT22;3458;53.678;14.080;2023-03-04T00:35:27;3.70;99.90
6841;DHT22;3458;53.678;14.080;2023-03-04T00:37:52;3.70;99.90
6841;DHT22;3458;53.678;14.080;2023-03-04T00:40:18;3.70;99.90
6841;DHT22;3458;53.678;14.080;2023-03-04T00:42:43;3.70;99.90
6841;DHT22;3458;53.678;14.080;2023-03-04T00:45:09;3.70;99.90
6841;DHT22;3458;53.678;14.080;2023-03-04T00:47:34;3.70;99.90
6841;DHT22;3458;53.678;14.080;2023-03-04T00:50:00;3.70;99.90
6841;DHT22;3458;53.678;14.080;2023-03-04T00:52:25;3.70;99.90
6841;DHT22;3458;53.678;14.080;2023-03-04T00:54:51;3.80;99.90
6841;DHT22;3458;53.678;14.080;2023-03-04T00:57:16;3.80;99.90
6841;DHT22;3458;53.678;14.080;2023-03-04T00:59:42;3.80;99.90
6841;DHT22;3458;53.678;14.080;2023-03-04T01:02:08;3.80;99.90
6841;DHT22;3458;53.678;14.080;2023-03-04T01:04:34;3.80;99.90
6841;DHT22;3458;53.678;14.080;2023-03-04T01:07:00;3.80;99.90
6841;DHT22;3458;53.678;14.080;2023-03-04T01:09:26;3.80;99.90
6841;DHT22;3458;53.678;14.080;2023-03-04T01:11:52;3.80;99.90
6841;DHT22;3458;53.678;14.080;2023-03-04T01:14:17;3.90;99.90
6841;DHT22;3458;53.678;14.080;2023-03-04T01:16:43;3.90;99.90
6841;DHT22;3458;53.678;14.080;2023-03-04T01:19:09;3.90;99.90
6841;DHT22;3458;53.678;14.080;2023-03-04T01:21:35;3.90;99.90
6841;DHT22;3458;53.678;14.080;2023-03-04T01:24:00;3.90;99.90
6841;DHT22;3458;53.678;14.080;2023-03-04T01:26:26;3.90;99.90
6841;DHT22;3458;53.678;14.080;2023-03-04T01:28:51;3.90;99.90
6841;DHT22;3458;53.678;14.080;2023-03-04T01:31:16;3.90;99.90
6841;DHT22;3458;53.678;14.080;2023-03-04T01:33:42;3.90;99.90
6841;DHT22;3458;53.678;14.080;2023-03-04T01:36:07;3.90;99.90
6841;DHT22;3458;53.678;14.080;2023-03-04T01:38:33;3.90;99.90
6841;DHT22;3458;53.678;14.080;2023-03-04T01:40:58;3.90;99.90
6841;DHT22;3458;53.678;14.080;2023-03-04T01:43:26;4.00;99.90
6841;DHT22;3458;53.678;14.080;2023-03-04T01:45:53;4.00;99.90
6841;DHT22;3458;53.678;14.080;2023-03-04T01:48:26;4.00;99.90
6841;DHT22;3458;53.678;14.080;2023-03-04T01:50:52;4.00;99.90
6841;DHT22;3458;53.678;14.080;2023-03-04T01:53:26;4.00;99.90
6841;DHT22;3458;53.678;14.080;2023-03-04T01:55:57;4.10;99.90
6841;DHT22;3458;53.678;14.080;2023-03-04T01:58:28;4.10;99.90
6841;DHT22;3458;53.678;14.080;2023-03-04T02:00:54;4.10;99.90
6841;DHT22;3458;53.678;14.080;2023-03-04T02:03:20;4.10;99.90
6841;DHT22;3458;53.678;14.080;2023-03-04T02:05:48;4.10;99.90
6841;DHT22;3458;53.678;14.080;2023-03-04T02:08:15;4.10;99.90
6841;DHT22;3458;53.678;14.080;2023-03-04T02:10:42;4.10;99.90
6841;DHT22;3458;53.678;14.080;2023-03-04T02:13:09;4.10;99.90
6841;DHT22;3458;53.678;14.080;2023-03-04T02:15:35;4.20;99.90
6841;DHT22;3458;53.678;14.080;2023-03-04T02:18:01;4.20;99.90
6841;DHT22;3458;53.678;14.080;2023-03-04T02:26:32;4.20;99.90
6841;DHT22;3458;53.678;14.080;2023-03-04T02:29:00;4.20;99.90
6841;DHT22;3458;53.678;14.080;2023-03-04T02:31:35;4.20;99.90
6841;DHT22;3458;53.678;14.080;2023-03-04T02:34:07;4.20;99.90
6841;DHT22;3458;53.678;14.080;2023-03-04T02:36:36;4.20;99.90
6841;DHT22;3458;53.678;14.080;2023-03-04T02:39:11;4.20;99.90
6841;DHT22;3458;53.678;14.080;2023-03-04T02:41:37;4.30;99.90
6841;DHT22;3458;53.678;14.080;2023-03-04T02:44:08;4.30;99.90
6841;DHT22;3458;53.678;14.080;2023-03-04T02:46:39;4.30;99.90
6841;DHT22;3458;53.678;14.080;2023-03-04T02:49:04;4.30;99.90
6841;DHT22;3458;53.678;14.080;2023-03-04T02:51:30;4.30;99.90
6841;DHT22;3458;53.678;14.080;2023-03-04T02:53:55;4.30;99.90
6841;DHT22;3458;53.678;14.080;2023-03-04T02:56:21;4.30;99.90
6841;DHT22;3458;53.678;14.080;2023-03-04T02:58:46;4.30;99.90
6841;DHT22;3458;53.678;14.080;2023-03-04T03:01:12;4.30;99.90
6841;DHT22;3458;53.678;14.080;2023-03-04T03:03:37;4.30;99.90
6841;DHT22;3458;53.678;14.080;2023-03-04T03:06:03;4.30;99.90
6841;DHT22;3458;53.678;14.080;2023-03-04T03:08:28;4.30;99.90
6841;DHT22;3458;53.678;14.080;2023-03-04T03:10:54;4.30;99.90
6841;DHT22;3458;53.678;14.080;2023-03-04T03:13:19;4.40;99.90
6841;DHT22;3458;53.678;14.080;2023-03-04T03:15:45;4.40;99.90
6841;DHT22;3458;53.678;14.080;2023-03-04T03:18:11;4.40;99.90
6841;DHT22;3458;53.678;14.080;2023-03-04T03:20:37;4.40;99.90
6841;DHT22;3458;53.678;14.080;2023-03-04T03:23:02;4.40;99.90
6841;DHT22;3458;53.678;14.080;2023-03-04T03:25:28;4.40;99.90
6841;DHT22;3458;53.678;14.080;2023-03-04T03:27:53;4.40;99.90
6841;DHT22;3458;53.678;14.080;2023-03-04T03:30:19;4.40;99.90
6841;DHT22;3458;53.678;14.080;2023-03-04T03:32:44;4.40;99.90
6841;DHT22;3458;53.678;14.080;2023-03-04T03:35:10;4.40;99.90
6841;DHT22;3458;53.678;14.080;2023-03-04T03:37:36;4.40;99.90
6841;DHT22;3458;53.678;14.080;2023-03-04T03:40:02;4.40;99.90
6841;DHT22;3458;53.678;14.080;2023-03-04T03:42:28;4.50;99.90
6841;DHT22;3458;53.678;14.080;2023-03-04T03:44:53;4.50;99.90
6841;DHT22;3458;53.678;14.080;2023-03-04T03:47:20;4.50;99.90
6841;DHT22;3458;53.678;14.080;2023-03-04T03:49:45;4.50;99.90
6841;DHT22;3458;53.678;14.080;2023-03-04T03:52:11;4.50;99.90
6841;DHT22;3458;53.678;14.080;2023-03-04T03:54:37;4.50;99.90
6841;DHT22;3458;53.678;14.080;2023-03-04T03:57:02;4.50;99.90
6841;DHT22;3458;53.678;14.080;2023-03-04T03:59:28;4.50;99.90
6841;DHT22;3458;53.678;14.080;2023-03-04T04:01:53;4.50;99.90
6841;DHT22;3458;53.678;14.080;2023-03-04T04:04:19;4.50;99.90
6841;DHT22;3458;53.678;14.080;2023-03-04T04:06:44;4.50;99.90
6841;DHT22;3458;53.678;14.080;2023-03-04T04:09:09;4.50;99.90
6841;DHT22;3458;53.678;14.080;2023-03-04T04:11:35;4.50;99.90
6841;DHT22;3458;53.678;14.080;2023-03-04T04:14:00;4.50;99.90
6841;DHT22;3458;53.678;14.080;2023-03-04T04:16:26;4.50;99.90
6841;DHT22;3458;53.678;14.080;2023-03-04T04:18:51;4.50;99.90
6841;DHT22;3458;53.678;14.080;2023-03-04T04:21:17;4.50;99.90
6841;DHT22;3458;53.678;14.080;2023-03-04T04:23:42;4.50;99.90
6841;DHT22;3458;53.678;14.080;2023-03-04T04:26:08;4.50;99.90
6841;DHT22;3458;53.678;14.080;2023-03-04T04:28:33;4.50;99.90
6841;DHT22;3458;53.678;14.080;2023-03-04T04:30:59;4.50;99.90
6841;DHT22;3458;53.678;14.080;2023-03-04T04:33:24;4.50;99.90
6841;DHT22;3458;53.678;14.080;2023-03-04T04:35:50;4.50;99.90
6841;DHT22;3458;53.678;14.080;2023-03-04T04:38:15;4.50;99.90
6841;DHT22;3458;53.678;14.080;2023-03-04T04:40:41;4.60;99.90
6841;DHT22;3458;53.678;14.080;2023-03-04T04:43:07;4.60;99.90
6841;DHT22;3458;53.678;14.080;2023-03-04T04:45:33;4.60;99.90
6841;DHT22;3458;53.678;14.080;2023-03-04T04:47:59;4.60;99.90
6841;DHT22;3458;53.678;14.080;2023-03-04T04:50:25;4.60;99.90
6841;DHT22;3458;53.678;14.080;2023-03-04T04:52:51;4.60;99.90
6841;DHT22;3458;53.678;14.080;2023-03-04T04:55:17;4.60;99.90
6841;DHT22;3458;53.678;14.080;2023-03-04T04:57:42;4.60;99.90
6841;DHT22;3458;53.678;14.080;2023-03-04T05:00:09;4.60;99.90
6841;DHT22;3458;53.678;14.080;2023-03-04T05:02:35;4.60;99.90
6841;DHT22;3458;53.678;14.080;2023-03-04T05:05:06;4.60;99.90
6841;DHT22;3458;53.678;14.080;2023-03-04T05:07:32;4.60;99.90
6841;DHT22;3458;53.678;14.080;2023-03-04T05:09:58;4.60;99.90
6841;DHT22;3458;53.678;14.080;2023-03-04T05:12:24;4.60;99.90
6841;DHT22;3458;53.678;14.080;2023-03-04T05:14:49;4.60;99.90
6841;DHT22;3458;53.678;14.080;2023-03-04T05:17:15;4.60;99.90
6841;DHT22;3458;53.678;14.080;2023-03-04T05:19:41;4.70;99.90
6841;DHT22;3458;53.678;14.080;2023-03-04T05:22:06;4.60;99.90
6841;DHT22;3458;53.678;14.080;2023-03-04T05:24:32;4.60;99.90
6841;DHT22;3458;53.678;14.080;2023-03-04T05:26:59;4.60;99.90
6841;DHT22;3458;53.678;14.080;2023-03-04T05:29:24;4.60;99.90
6841;DHT22;3458;53.678;14.080;2023-03-04T05:31:50;4.70;99.90
6841;DHT22;3458;53.678;14.080;2023-03-04T05:34:15;4.70;99.90
6841;DHT22;3458;53.678;14.080;2023-03-04T05:36:41;4.70;99.90
6841;DHT22;3458;53.678;14.080;2023-03-04T05:39:06;4.70;99.90
6841;DHT22;3458;53.678;14.080;2023-03-04T05:41:32;4.80;99.90
6841;DHT22;3458;53.678;14.080;2023-03-04T05:43:57;4.80;99.90
6841;DHT22;3458;53.678;14.080;2023-03-04T05:46:23;4.80;99.90
6841;DHT22;3458;53.678;14.080;2023-03-04T05:48:53;4.90;99.90
6841;DHT22;3458;53.678;14.080;2023-03-04T05:51:19;4.90;99.90
6841;DHT22;3458;53.678;14.080;2023-03-04T05:53:45;4.90;99.90
6841;DHT22;3458;53.678;14.080;2023-03-04T05:56:14;4.90;99.90
6841;DHT22;3458;53.678;14.080;2023-03-04T05:58:40;4.90;99.90
6841;DHT22;3458;53.678;14.080;2023-03-04T06:01:06;4.90;99.90
6841;DHT22;3458;53.678;14.080;2023-03-04T06:03:32;4.90;99.90
6841;DHT22;3458;53.678;14.080;2023-03-04T06:05:57;4.90;99.90
6841;DHT22;3458;53.678;14.080;2023-03-04T06:08:23;4.90;99.90
6841;DHT22;3458;53.678;14.080;2023-03-04T06:10:52;4.90;99.90
6841;DHT22;3458;53.678;14.080;2023-03-04T06:13:17;4.90;99.90
6841;DHT22;3458;53.678;14.080;2023-03-04T06:15:43;4.90;99.90
6841;DHT22;3458;53.678;14.080;2023-03-04T06:18:08;5.00;99.90
6841;DHT22;3458;53.678;14.080;2023-03-04T06:20:34;5.00;99.90
6841;DHT22;3458;53.678;14.080;2023-03-04T06:23:00;5.00;99.90
6841;DHT22;3458;53.678;14.080;2023-03-04T06:25:25;5.00;99.90
6841;DHT22;3458;53.678;14.080;2023-03-04T06:27:51;4.90;99.90
6841;DHT22;3458;53.678;14.080;2023-03-04T06:30:17;4.90;99.90
6841;DHT22;3458;53.678;14.080;2023-03-04T06:32:43;4.90;99.90
6841;DHT22;3458;53.678;14.080;2023-03-04T06:35:10;4.90;99.90
6841;DHT22;3458;53.678;14.080;2023-03-04T06:37:35;4.90;99.90
6841;DHT22;3458;53.678;14.080;2023-03-04T06:40:01;4.90;99.90
6841;DHT22;3458;53.678;14.080;2023-03-04T06:42:27;4.90;99.90
6841;DHT22;3458;53.678;14.080;2023-03-04T06:44:53;4.90;99.90
6841;DHT22;3458;53.678;14.080;2023-03-04T06:47:18;4.90;99.90
6841;DHT22;3458;53.678;14.080;2023-03-04T06:49:44;4.90;99.90
6841;DHT22;3458;53.678;14.080;2023-03-04T06:52:09;4.90;99.90
6841;DHT22;3458;53.678;14.080;2023-03-04T06:54:38;4.90;99.90
6841;DHT22;3458;53.678;14.080;2023-03-04T06:57:04;4.90;99.90
6841;DHT22;3458;53.678;14.080;2023-03-04T06:59:29;4.90;99.90
6841;DHT22;3458;53.678;14.080;2023-03-04T07:01:55;4.90;99.90
6841;DHT22;3458;53.678;14.080;2023-03-04T07:04:20;5.00;99.90
6841;DHT22;3458;53.678;14.080;2023-03-04T07:06:47;5.00;99.90
6841;DHT22;3458;53.678;14.080;2023-03-04T07:09:13;5.00;99.90
6841;DHT22;3458;53.678;14.080;2023-03-04T07:11:38;5.00;99.90
6841;DHT22;3458;53.678;14.080;2023-03-04T07:14:04;5.00;99.90
6841;DHT22;3458;53.678;14.080;2023-03-04T07:16:29;5.00;99.90
6841;DHT22;3458;53.678;14.080;2023-03-04T07:18:55;5.00;99.90
6841;DHT22;3458;53.678;14.080;2023-03-04T07:21:20;5.00;99.90
6841;DHT22;3458;53.678;14.080;2023-03-04T07:23:46;5.00;99.90
6841;DHT22;3458;53.678;14.080;2023-03-04T07:26:12;5.00;99.90
6841;DHT22;3458;53.678;14.080;2023-03-04T07:28:38;5.00;99.90
6841;DHT22;3458;53.678;14.080;2023-03-04T07:31:09;5.00;99.90
6841;DHT22;3458;53.678;14.080;2023-03-04T07:33:34;5.00;99.90
6841;DHT22;3458;53.678;14.080;2023-03-04T07:36:00;5.10;99.90
6841;DHT22;3458;53.678;14.080;2023-03-04T07:38:25;5.10;99.90
6841;DHT22;3458;53.678;14.080;2023-03-04T07:40:55;5.10;99.90
6841;DHT22;3458;53.678;14.080;2023-03-04T07:43:21;5.20;99.90
6841;DHT22;3458;53.678;14.080;2023-03-04T07:45:47;5.20;99.90
6841;DHT22;3458;53.678;14.080;2023-03-04T07:48:12;5.20;99.90
6841;DHT22;3458;53.678;14.080;2023-03-04T07:50:37;5.20;99.90
6841;DHT22;3458;53.678;14.080;2023-03-04T07:53:03;5.20;99.90
6841;DHT22;3458;53.678;14.080;2023-03-04T07:55:28;5.20;99.90
6841;DHT22;3458;53.678;14.080;2023-03-04T07:57:55;5.20;99.90
6841;DHT22;3458;53.678;14.080;2023-03-04T08:00:21;5.20;99.90
6841;DHT22;3458;53.678;14.080;2023-03-04T08:02:47;5.20;99.90
6841;DHT22;3458;53.678;14.080;2023-03-04T08:05:12;5.20;99.90
6841;DHT22;3458;53.678;14.080;2023-03-04T08:07:38;5.20;99.90
6841;DHT22;3458;53.678;14.080;2023-03-04T08:10:04;5.30;99.90
6841;DHT22;3458;53.678;14.080;2023-03-04T08:12:29;5.20;99.90
6841;DHT22;3458;53.678;14.080;2023-03-04T08:14:55;5.30;99.90
6841;DHT22;3458;53.678;14.080;2023-03-04T08:17:20;5.30;99.90
6841;DHT22;3458;53.678;14.080;2023-03-04T08:19:46;5.30;99.90
6841;DHT22;3458;53.678;14.080;2023-03-04T08:22:12;5.30;99.90
6841;DHT22;3458;53.678;14.080;2023-03-04T08:24:38;5.30;99.90
6841;DHT22;3458;53.678;14.080;2023-03-04T08:27:04;5.40;99.90
6841;DHT22;3458;53.678;14.080;2023-03-04T08:29:29;5.40;99.90
6841;DHT22;3458;53.678;14.080;2023-03-04T08:31:55;5.40;99.90
6841;DHT22;3458;53.678;14.080;2023-03-04T08:34:24;5.40;99.90
6841;DHT22;3458;53.678;14.080;2023-03-04T08:36:49;5.40;99.90
6841;DHT22;3458;53.678;14.080;2023-03-04T08:39:16;5.40;99.90
6841;DHT22;3458;53.678;14.080;2023-03-04T08:41:42;5.30;99.90
6841;DHT22;3458;53.678;14.080;2023-03-04T08:44:08;5.30;99.90
6841;DHT22;3458;53.678;14.080;2023-03-04T08:46:38;5.40;99.90
6841;DHT22;3458;53.678;14.080;2023-03-04T08:49:04;5.40;99.90
6841;DHT22;3458;53.678;14.080;2023-03-04T08:51:30;5.40;99.90
6841;DHT22;3458;53.678;14.080;2023-03-04T08:53:56;5.50;99.90
6841;DHT22;3458;53.678;14.080;2023-03-04T08:56:21;5.60;99.90
6841;DHT22;3458;53.678;14.080;2023-03-04T08:58:47;5.60;99.90
6841;DHT22;3458;53.678;14.080;2023-03-04T09:01:13;5.60;99.90
6841;DHT22;3458;53.678;14.080;2023-03-04T09:03:40;5.60;99.90
6841;DHT22;3458;53.678;14.080;2023-03-04T09:06:07;5.60;99.90
6841;DHT22;3458;53.678;14.080;2023-03-04T09:08:34;5.60;99.90
6841;DHT22;3458;53.678;14.080;2023-03-04T09:11:00;5.60;99.90
6841;DHT22;3458;53.678;14.080;2023-03-04T09:13:28;5.60;99.90
6841;DHT22;3458;53.678;14.080;2023-03-04T09:15:54;5.50;99.90
6841;DHT22;3458;53.678;14.080;2023-03-04T09:18:21;5.60;99.90
6841;DHT22;3458;53.678;14.080;2023-03-04T09:20:47;5.60;99.90
6841;DHT22;3458;53.678;14.080;2023-03-04T09:23:13;5.60;99.90
6841;DHT22;3458;53.678;14.080;2023-03-04T09:25:40;5.60;99.90
6841;DHT22;3458;53.678;14.080;2023-03-04T09:28:06;5.60;99.90
6841;DHT22;3458;53.678;14.080;2023-03-04T09:30:32;5.60;99.90
6841;DHT22;3458;53.678;14.080;2023-03-04T09:32:58;5.60;99.90
6841;DHT22;3458;53.678;14.080;2023-03-04T09:35:24;5.60;99.90
6841;DHT22;3458;53.678;14.080;2023-03-04T09:37:50;5.70;99.90
6841;DHT22;3458;53.678;14.080;2023-03-04T09:40:20;5.70;99.90
6841;DHT22;3458;53.678;14.080;2023-03-04T09:42:53;5.70;99.90
6841;DHT22;3458;53.678;14.080;2023-03-04T09:45:22;5.70;99.90
6841;DHT22;3458;53.678;14.080;2023-03-04T09:47:51;5.70;99.90
6841;DHT22;3458;53.678;14.080;2023-03-04T09:50:18;5.70;99.90
6841;DHT22;3458;53.678;14.080;2023-03-04T09:52:59;5.70;99.90
6841;DHT22;3458;53.678;14.080;2023-03-04T09:55:37;5.70;99.90
6841;DHT22;3458;53.678;14.080;2023-03-04T09:58:21;5.70;99.90
6841;DHT22;3458;53.678;14.080;2023-03-04T10:01:06;5.70;99.90
6841;DHT22;3458;53.678;14.080;2023-03-04T10:03:53;5.70;99.90
6841;DHT22;3458;53.678;14.080;2023-03-04T10:06:21;5.70;99.90
6841;DHT22;3458;53.678;14.080;2023-03-04T10:08:55;5.70;99.90
6841;DHT22;3458;53.678;14.080;2023-03-04T10:11:39;5.70;99.90
6841;DHT22;3458;53.678;14.080;2023-03-04T10:14:41;5.70;99.90
6841;DHT22;3458;53.678;14.080;2023-03-04T10:17:42;5.70;99.90
6841;DHT22;3458;53.678;14.080;2023-03-04T10:20:31;5.80;99.90
6841;DHT22;3458;53.678;14.080;2023-03-04T10:23:10;5.80;99.90
6841;DHT22;3458;53.678;14.080;2023-03-04T10:25:39;5.80;99.90
6841;DHT22;3458;53.678;14.080;2023-03-04T10:28:16;5.70;99.90
6841;DHT22;3458;53.678;14.080;2023-03-04T10:31:03;5.70;99.90
6841;DHT22;3458;53.678;14.080;2023-03-04T10:33:36;5.70;99.90
6841;DHT22;3458;53.678;14.080;2023-03-04T10:36:31;5.70;99.90
6841;DHT22;3458;53.678;14.080;2023-03-04T10:39:08;5.70;99.90
6841;DHT22;3458;53.678;14.080;2023-03-04T10:41:35;5.70;99.90
6841;DHT22;3458;53.678;14.080;2023-03-04T10:46:48;5.80;99.90
6841;DHT22;3458;53.678;14.080;2023-03-04T10:49:18;5.70;99.90
6841;DHT22;3458;53.678;14.080;2023-03-04T10:51:59;5.80;99.90
6841;DHT22;3458;53.678;14.080;2023-03-04T10:54:30;5.70;99.90
6841;DHT22;3458;53.678;14.080;2023-03-04T10:59:57;5.70;99.90
6841;DHT22;3458;53.678;14.080;2023-03-04T11:02:34;5.70;99.90
6841;DHT22;3458;53.678;14.080;2023-03-04T11:05:22;6.00;99.90
6841;DHT22;3458;53.678;14.080;2023-03-04T11:07:59;6.50;99.90
6841;DHT22;3458;53.678;14.080;2023-03-04T11:21:07;7.00;99.90
6841;DHT22;3458;53.678;14.080;2023-03-04T11:23:51;7.10;99.90
6841;DHT22;3458;53.678;14.080;2023-03-04T11:26:25;7.20;99.90
6841;DHT22;3458;53.678;14.080;2023-03-04T11:29:12;7.20;99.90
6841;DHT22;3458;53.678;14.080;2023-03-04T11:31:45;7.10;99.90
6841;DHT22;3458;53.678;14.080;2023-03-04T11:34:16;6.70;99.90
6841;DHT22;3458;53.678;14.080;2023-03-04T11:36:56;6.40;99.90
6841;DHT22;3458;53.678;14.080;2023-03-04T11:39:33;6.00;99.90
6841;DHT22;3458;53.678;14.080;2023-03-04T11:42:09;5.80;99.90
6841;DHT22;3458;53.678;14.080;2023-03-04T11:44:37;5.60;99.90
6841;DHT22;3458;53.678;14.080;2023-03-04T11:47:21;5.50;99.90
6841;DHT22;3458;53.678;14.080;2023-03-04T11:50:18;5.30;99.90
6841;DHT22;3458;53.678;14.080;2023-03-04T11:55:45;5.10;99.90
6841;DHT22;3458;53.678;14.080;2023-03-04T11:58:23;5.10;99.90
6841;DHT22;3458;53.678;14.080;2023-03-04T12:01:09;5.00;99.90
6841;DHT22;3458;53.678;14.080;2023-03-04T12:07:05;5.20;99.90
6841;DHT22;3458;53.678;14.080;2023-03-04T12:15:23;5.50;99.90
6841;DHT22;3458;53.678;14.080;2023-03-04T12:18:04;5.40;99.90
6841;DHT22;3458;53.678;14.080;2023-03-04T12:23:36;5.50;99.90
6841;DHT22;3458;53.678;14.080;2023-03-04T12:26:35;5.70;99.90
6841;DHT22;3458;53.678;14.080;2023-03-04T12:29:12;5.80;99.90
6841;DHT22;3458;53.678;14.080;2023-03-04T12:31:45;5.90;99.90
6841;DHT22;3458;53.678;14.080;2023-03-04T12:48:41;5.70;99.90
6841;DHT22;3458;53.678;14.080;2023-03-04T12:56:49;6.00;99.90
6841;DHT22;3458;53.678;14.080;2023-03-04T12:59:19;6.20;99.90
6841;DHT22;3458;53.678;14.080;2023-03-04T13:02:13;6.30;99.90
6841;DHT22;3458;53.678;14.080;2023-03-04T13:05:06;6.50;99.90
6841;DHT22;3458;53.678;14.080;2023-03-04T13:08:05;7.70;99.90
6841;DHT22;3458;53.678;14.080;2023-03-04T13:10:32;8.50;98.50
6841;DHT22;3458;53.678;14.080;2023-03-04T13:12:59;8.70;94.80
6841;DHT22;3458;53.678;14.080;2023-03-04T13:15:37;8.50;92.90
6841;DHT22;3458;53.678;14.080;2023-03-04T13:18:29;8.80;91.50
6841;DHT22;3458;53.678;14.080;2023-03-04T13:21:05;9.60;90.90
6841;DHT22;3458;53.678;14.080;2023-03-04T13:23:32;10.40;85.60
6841;DHT22;3458;53.678;14.080;2023-03-04T13:28:27;9.40;78.30
6841;DHT22;3458;53.678;14.080;2023-03-04T13:38:23;11.10;73.10
6841;DHT22;3458;53.678;14.080;2023-03-04T13:41:23;11.80;71.30
6841;DHT22;3458;53.678;14.080;2023-03-04T13:43:57;12.10;65.70
6841;DHT22;3458;53.678;14.080;2023-03-04T13:51:17;12.20;60.00
6841;DHT22;3458;53.678;14.080;2023-03-04T13:56:25;12.10;58.00
6841;DHT22;3458;53.678;14.080;2023-03-04T13:59:14;12.30;56.70
6841;DHT22;3458;53.678;14.080;2023-03-04T14:04:23;11.60;55.00
6841;DHT22;3458;53.678;14.080;2023-03-04T14:06:52;12.00;53.80
6841;DHT22;3458;53.678;14.080;2023-03-04T14:09:20;12.10;51.40
6841;DHT22;3458;53.678;14.080;2023-03-04T14:11:48;11.50;50.20
6841;DHT22;3458;53.678;14.080;2023-03-04T14:14:19;11.50;51.50
6841;DHT22;3458;53.678;14.080;2023-03-04T14:16:58;11.80;50.90
6841;DHT22;3458;53.678;14.080;2023-03-04T14:21:52;10.90;50.10
6841;DHT22;3458;53.678;14.080;2023-03-04T14:24:19;11.10;51.40
6841;DHT22;3458;53.678;14.080;2023-03-04T14:26:46;11.80;51.60
6841;DHT22;3458;53.678;14.080;2023-03-04T14:29:26;12.30;50.80
6841;DHT22;3458;53.678;14.080;2023-03-04T14:31:53;12.80;49.90
6841;DHT22;3458;53.678;14.080;2023-03-04T14:34:32;12.60;48.50
6841;DHT22;3458;53.678;14.080;2023-03-04T14:37:00;11.70;48.90
6841;DHT22;3458;53.678;14.080;2023-03-04T14:39:29;11.00;49.70
6841;DHT22;3458;53.678;14.080;2023-03-04T14:42:00;10.30;50.70
6841;DHT22;3458;53.678;14.080;2023-03-04T14:44:32;10.20;51.60
6841;DHT22;3458;53.678;14.080;2023-03-04T14:49:50;9.80;52.70
6841;DHT22;3458;53.678;14.080;2023-03-04T14:52:38;9.20;53.30
6841;DHT22;3458;53.678;14.080;2023-03-04T14:57:42;8.50;54.90
6841;DHT22;3458;53.678;14.080;2023-03-04T15:02:51;10.50;54.90
6841;DHT22;3458;53.678;14.080;2023-03-04T15:05:24;11.20;53.30
6841;DHT22;3458;53.678;14.080;2023-03-04T15:08:02;12.00;53.00
6841;DHT22;3458;53.678;14.080;2023-03-04T15:10:33;12.70;52.70
6841;DHT22;3458;53.678;14.080;2023-03-04T15:13:02;13.10;51.30
6841;DHT22;3458;53.678;14.080;2023-03-04T15:15:33;13.40;50.30
6841;DHT22;3458;53.678;14.080;2023-03-04T15:18:17;13.30;49.00
6841;DHT22;3458;53.678;14.080;2023-03-04T15:23:19;13.50;47.80
6841;DHT22;3458;53.678;14.080;2023-03-04T15:25:44;13.40;46.90
6841;DHT22;3458;53.678;14.080;2023-03-04T15:28:16;13.30;46.80
6841;DHT22;3458;53.678;14.080;2023-03-04T15:30:42;13.20;46.40
6841;DHT22;3458;53.678;14.080;2023-03-04T15:33:09;13.30;46.10
6841;DHT22;3458;53.678;14.080;2023-03-04T15:35:36;13.90;45.00
6841;DHT22;3458;53.678;14.080;2023-03-04T15:38:05;14.30;44.70
6841;DHT22;3458;53.678;14.080;2023-03-04T15:40:37;14.30;44.30
6841;DHT22;3458;53.678;14.080;2023-03-04T15:43:05;14.30;44.60
6841;DHT22;3458;53.678;14.080;2023-03-04T15:45:33;14.10;43.70
6841;DHT22;3458;53.678;14.080;2023-03-04T15:48:03;13.80;44.20
6841;DHT22;3458;53.678;14.080;2023-03-04T15:50:33;13.10;44.70
6841;DHT22;3458;53.678;14.080;2023-03-04T15:53:02;12.00;44.60
6841;DHT22;3458;53.678;14.080;2023-03-04T15:55:29;11.10;45.20
6841;DHT22;3458;53.678;14.080;2023-03-04T15:57:56;10.40;46.30
6841;DHT22;3458;53.678;14.080;2023-03-04T16:00:23;9.80;48.10
6841;DHT22;3458;53.678;14.080;2023-03-04T16:02:48;9.30;48.60
6841;DHT22;3458;53.678;14.080;2023-03-04T16:05:14;8.90;49.60
6841;DHT22;3458;53.678;14.080;2023-03-04T16:07:41;8.50;50.30
6841;DHT22;3458;53.678;14.080;2023-03-04T16:10:14;8.20;50.60
6841;DHT22;3458;53.678;14.080;2023-03-04T16:12:41;7.90;50.70
6841;DHT22;3458;53.678;14.080;2023-03-04T16:15:18;7.50;51.50
6841;DHT22;3458;53.678;14.080;2023-03-04T16:17:45;7.30;52.10
6841;DHT22;3458;53.678;14.080;2023-03-04T16:20:13;7.10;52.40
6841;DHT22;3458;53.678;14.080;2023-03-04T16:22:40;6.80;52.90
6841;DHT22;3458;53.678;14.080;2023-03-04T16:25:09;6.70;53.30
6841;DHT22;3458;53.678;14.080;2023-03-04T16:27:35;6.60;53.40
6841;DHT22;3458;53.678;14.080;2023-03-04T16:30:01;6.50;53.30
6841;DHT22;3458;53.678;14.080;2023-03-04T16:32:26;6.40;53.30
6841;DHT22;3458;53.678;14.080;2023-03-04T16:34:52;6.20;53.20
6841;DHT22;3458;53.678;14.080;2023-03-04T16:37:18;6.10;53.60
6841;DHT22;3458;53.678;14.080;2023-03-04T16:39:44;6.10;54.10
6841;DHT22;3458;53.678;14.080;2023-03-04T16:42:18;5.90;53.80
6841;DHT22;3458;53.678;14.080;2023-03-04T16:44:44;5.80;53.70
6841;DHT22;3458;53.678;14.080;2023-03-04T16:47:10;5.70;53.40
6841;DHT22;3458;53.678;14.080;2023-03-04T16:49:36;5.50;53.00
6841;DHT22;3458;53.678;14.080;2023-03-04T16:52:02;5.40;53.40
6841;DHT22;3458;53.678;14.080;2023-03-04T16:54:30;5.40;53.80
6841;DHT22;3458;53.678;14.080;2023-03-04T16:56:57;5.40;54.10
6841;DHT22;3458;53.678;14.080;2023-03-04T16:59:23;5.30;54.20
6841;DHT22;3458;53.678;14.080;2023-03-04T17:01:49;5.30;54.60
6841;DHT22;3458;53.678;14.080;2023-03-04T17:04:16;5.30;54.90
6841;DHT22;3458;53.678;14.080;2023-03-04T17:06:42;5.20;54.90
6841;DHT22;3458;53.678;14.080;2023-03-04T17:09:08;5.10;55.00
6841;DHT22;3458;53.678;14.080;2023-03-04T17:11:34;5.10;55.20
6841;DHT22;3458;53.678;14.080;2023-03-04T17:14:00;5.00;55.30
6841;DHT22;3458;53.678;14.080;2023-03-04T17:16:26;5.00;55.30
6841;DHT22;3458;53.678;14.080;2023-03-04T17:18:55;4.90;55.30
6841;DHT22;3458;53.678;14.080;2023-03-04T17:21:23;4.90;55.60
6841;DHT22;3458;53.678;14.080;2023-03-04T17:23:49;4.90;55.80
6841;DHT22;3458;53.678;14.080;2023-03-04T17:26:15;4.80;56.00
6841;DHT22;3458;53.678;14.080;2023-03-04T17:28:45;4.80;56.20
6841;DHT22;3458;53.678;14.080;2023-03-04T17:31:13;4.80;57.20
6841;DHT22;3458;53.678;14.080;2023-03-04T17:33:39;4.70;56.60
6841;DHT22;3458;53.678;14.080;2023-03-04T17:36:06;4.70;56.70
6841;DHT22;3458;53.678;14.080;2023-03-04T17:38:31;4.70;57.10
6841;DHT22;3458;53.678;14.080;2023-03-04T17:41:05;4.60;58.10